createdAt,value
2018-11-26T00:00:41.092Z,1008.77
2018-11-26T00:01:41.121Z,1008.77
2018-11-26T00:02:41.148Z,1008.76
2018-11-26T00:03:41.224Z,1008.75
2018-11-26T00:04:41.205Z,1008.77
2018-11-26T00:05:41.232Z,1008.78
2018-11-26T00:06:41.262Z,1008.79
2018-11-26T00:07:41.291Z,1008.81
2018-11-26T00:08:41.321Z,1008.83
2018-11-26T00:09:41.348Z,1008.86
2018-11-26T00:10:41.374Z,1008.82
2018-11-26T00:11:41.402Z,1008.85
2018-11-26T00:12:41.431Z,1008.85
2018-11-26T00:13:41.458Z,1008.81
2018-11-26T00:14:41.487Z,1008.78
2018-11-26T00:15:41.516Z,1008.77
2018-11-26T00:16:41.542Z,1008.75
2018-11-26T00:17:41.570Z,1008.78
2018-11-26T00:18:41.685Z,1008.79
2018-11-26T00:19:41.626Z,1008.76
2018-11-26T00:20:41.656Z,1008.78
2018-11-26T00:21:41.682Z,1008.78
2018-11-26T00:22:41.709Z,1008.75
2018-11-26T00:23:41.737Z,1008.74
2018-11-26T00:24:41.768Z,1008.73
2018-11-26T00:25:41.796Z,1008.73
2018-11-26T00:26:41.821Z,1008.72
2018-11-26T00:27:41.861Z,1008.72
2018-11-26T00:28:41.877Z,1008.74
2018-11-26T00:29:41.905Z,1008.74
2018-11-26T00:30:41.933Z,1008.76
2018-11-26T00:31:41.962Z,1008.75
2018-11-26T00:32:41.995Z,1008.79
2018-11-26T00:33:42.019Z,1008.76
2018-11-26T00:34:42.045Z,1008.73
2018-11-26T00:35:42.073Z,1008.72
2018-11-26T00:36:42.101Z,1008.76
2018-11-26T00:37:42.133Z,1008.74
2018-11-26T00:38:42.156Z,1008.81
2018-11-26T00:39:42.184Z,1008.82
2018-11-26T00:40:42.213Z,1008.82
2018-11-26T00:41:42.239Z,1008.80
2018-11-26T00:42:42.266Z,1008.81
2018-11-26T00:43:42.296Z,1008.78
2018-11-26T00:44:42.327Z,1008.80
2018-11-26T00:45:42.351Z,1008.79
2018-11-26T00:46:42.380Z,1008.80
2018-11-26T00:47:42.405Z,1008.80
2018-11-26T00:48:42.434Z,1008.80
2018-11-26T00:49:42.461Z,1008.82
2018-11-26T00:50:42.489Z,1008.87
2018-11-26T00:51:42.521Z,1008.83
2018-11-26T00:52:42.552Z,1008.83
2018-11-26T00:53:42.572Z,1008.81
2018-11-26T00:54:42.600Z,1008.76
2018-11-26T00:55:42.635Z,1008.79
2018-11-26T00:56:42.655Z,1008.77
2018-11-26T00:57:42.683Z,1008.74
2018-11-26T00:58:42.712Z,1008.75
2018-11-26T00:59:42.741Z,1008.74
2018-11-26T01:00:42.765Z,1008.72
2018-11-26T01:01:42.791Z,1008.73
2018-11-26T01:02:42.831Z,1008.69
2018-11-26T01:03:42.850Z,1008.67
2018-11-26T01:04:42.878Z,1008.68
2018-11-26T01:05:42.910Z,1008.65
2018-11-26T01:06:42.930Z,1008.72
2018-11-26T01:07:42.960Z,1008.71
2018-11-26T01:08:42.986Z,1008.69
2018-11-26T01:09:43.029Z,1008.72
2018-11-26T01:10:43.051Z,1008.74
2018-11-26T01:11:43.093Z,1008.74
2018-11-26T01:12:43.098Z,1008.76
2018-11-26T01:13:43.133Z,1008.79
2018-11-26T01:14:43.155Z,1008.75
2018-11-26T01:15:43.180Z,1008.76
2018-11-26T01:16:43.206Z,1008.74
2018-11-26T01:17:43.937Z,1008.75
2018-11-26T01:18:43.260Z,1008.74
2018-11-26T01:19:43.287Z,1008.73
2018-11-26T01:20:43.317Z,1008.73
2018-11-26T01:21:43.343Z,1008.74
2018-11-26T01:22:43.372Z,1008.67
2018-11-26T01:23:43.429Z,1008.70
2018-11-26T01:24:43.424Z,1008.70
2018-11-26T01:25:43.458Z,1008.64
2018-11-26T01:26:43.479Z,1008.70
2018-11-26T01:27:43.509Z,1008.72
2018-11-26T01:28:43.534Z,1008.69
2018-11-26T01:29:43.561Z,1008.70
2018-11-26T01:30:43.590Z,1008.68
2018-11-26T01:31:43.617Z,1008.67
2018-11-26T01:32:43.645Z,1008.66
2018-11-26T01:33:43.692Z,1008.64
2018-11-26T01:34:43.697Z,1008.65
2018-11-26T01:35:43.734Z,1008.68
2018-11-26T01:36:43.754Z,1008.62
2018-11-26T01:37:43.780Z,1008.64
2018-11-26T01:38:43.832Z,1008.61
2018-11-26T01:39:43.834Z,1008.61
2018-11-26T01:40:43.864Z,1008.61
2018-11-26T01:41:43.889Z,1008.61
2018-11-26T01:42:43.917Z,1008.58
2018-11-26T01:43:43.946Z,1008.59
2018-11-26T01:44:43.971Z,1008.57
2018-11-26T01:45:44.001Z,1008.50
2018-11-26T01:46:44.026Z,1008.52
2018-11-26T01:47:44.054Z,1008.53
2018-11-26T01:48:44.080Z,1008.53
2018-11-26T01:49:44.140Z,1008.53
2018-11-26T01:50:44.139Z,1008.52
2018-11-26T01:51:44.166Z,1008.55
2018-11-26T01:52:44.191Z,1008.56
2018-11-26T01:53:44.216Z,1008.55
2018-11-26T01:54:44.246Z,1008.62
2018-11-26T01:55:44.272Z,1008.58
2018-11-26T01:56:44.299Z,1008.56
2018-11-26T01:57:44.325Z,1008.58
2018-11-26T01:58:44.376Z,1008.56
2018-11-26T01:59:44.382Z,1008.56
2018-11-26T02:00:44.411Z,1008.55
2018-11-26T02:01:44.435Z,1008.54
2018-11-26T02:02:44.465Z,1008.53
2018-11-26T02:03:44.491Z,1008.53
2018-11-26T02:04:44.519Z,1008.51
2018-11-26T02:05:44.546Z,1008.50
2018-11-26T02:06:44.571Z,1008.50
2018-11-26T02:07:44.600Z,1008.52
2018-11-26T02:08:44.626Z,1008.50
2018-11-26T02:09:44.656Z,1008.51
2018-11-26T02:10:44.679Z,1008.48
2018-11-26T02:11:44.706Z,1008.44
2018-11-26T02:12:44.739Z,1008.41
2018-11-26T02:13:44.761Z,1008.39
2018-11-26T02:14:44.788Z,1008.39
2018-11-26T02:15:44.815Z,1008.37
2018-11-26T02:16:44.843Z,1008.40
2018-11-26T02:17:44.869Z,1008.35
2018-11-26T02:18:44.897Z,1008.36
2018-11-26T02:19:44.923Z,1008.38
2018-11-26T02:20:44.950Z,1008.40
2018-11-26T02:21:44.976Z,1008.37
2018-11-26T02:22:45.011Z,1008.39
2018-11-26T02:23:45.038Z,1008.43
2018-11-26T02:24:45.059Z,1008.41
2018-11-26T02:25:45.085Z,1008.39
2018-11-26T02:26:45.112Z,1008.35
2018-11-26T02:27:45.139Z,1008.37
2018-11-26T02:28:45.166Z,1008.36
2018-11-26T02:29:45.193Z,1008.36
2018-11-26T02:30:45.221Z,1008.37
2018-11-26T02:31:45.250Z,1008.31
2018-11-26T02:32:45.280Z,1008.33
2018-11-26T02:33:45.302Z,1008.30
2018-11-26T02:34:45.327Z,1008.31
2018-11-26T02:35:45.356Z,1008.34
2018-11-26T02:36:45.386Z,1008.34
2018-11-26T02:37:45.411Z,1008.33
2018-11-26T02:38:45.438Z,1008.27
2018-11-26T02:39:45.466Z,1008.32
2018-11-26T02:40:45.491Z,1008.33
2018-11-26T02:41:45.520Z,1008.30
2018-11-26T02:42:45.547Z,1008.31
2018-11-26T02:43:45.572Z,1008.30
2018-11-26T02:44:45.598Z,1008.32
2018-11-26T02:45:45.626Z,1008.20
2018-11-26T02:46:45.663Z,1008.22
2018-11-26T02:47:45.679Z,1008.28
2018-11-26T02:48:45.705Z,1008.25
2018-11-26T02:49:45.733Z,1008.26
2018-11-26T02:50:45.762Z,1008.21
2018-11-26T02:51:45.788Z,1008.26
2018-11-26T02:52:45.815Z,1008.21
2018-11-26T02:53:45.841Z,1008.20
2018-11-26T02:54:45.875Z,1008.17
2018-11-26T02:55:45.903Z,1008.20
2018-11-26T02:56:45.923Z,1008.20
2018-11-26T02:57:45.951Z,1008.21
2018-11-26T02:58:45.974Z,1008.20
2018-11-26T02:59:52.454Z,1008.23
2018-11-26T03:01:48.010Z,1008.20
2018-11-26T03:02:48.029Z,1008.22
2018-11-26T03:04:50.051Z,1008.25
2018-11-26T03:05:50.055Z,1008.23
2018-11-26T03:07:52.074Z,1008.21
2018-11-26T03:08:52.077Z,1008.23
2018-11-26T03:10:44.028Z,1008.23
2018-11-26T03:11:44.045Z,1008.23
2018-11-26T03:13:46.067Z,1008.32
2018-11-26T03:14:46.079Z,1008.29
2018-11-26T03:16:48.077Z,1008.28
2018-11-26T03:17:48.096Z,1008.19
2018-11-26T03:19:50.205Z,1008.28
2018-11-26T03:20:50.119Z,1008.27
2018-11-26T03:22:52.121Z,1008.33
2018-11-26T03:23:52.142Z,1008.37
2018-11-26T03:25:54.146Z,1008.46
2018-11-26T03:26:54.165Z,1008.46
2018-11-26T03:28:56.170Z,1008.46
2018-11-26T03:29:56.188Z,1008.46
2018-11-26T03:31:58.208Z,1008.44
2018-11-26T03:32:58.210Z,1008.49
2018-11-26T03:35:00.698Z,1008.49
2018-11-26T03:36:00.722Z,1008.48
2018-11-26T03:37:00.757Z,1008.51
2018-11-26T03:38:00.777Z,1008.52
2018-11-26T03:39:00.801Z,1008.48
2018-11-26T03:40:00.828Z,1008.48
2018-11-26T03:41:00.857Z,1008.47
2018-11-26T03:42:00.883Z,1008.46
2018-11-26T03:43:00.909Z,1008.45
2018-11-26T03:44:00.936Z,1008.43
2018-11-26T03:45:00.964Z,1008.48
2018-11-26T03:46:00.990Z,1008.44
2018-11-26T03:47:01.015Z,1008.47
2018-11-26T03:48:01.049Z,1008.48
2018-11-26T03:49:01.072Z,1008.46
2018-11-26T03:50:01.105Z,1008.45
2018-11-26T03:51:01.126Z,1008.43
2018-11-26T03:52:01.152Z,1008.41
2018-11-26T03:53:01.180Z,1008.40
2018-11-26T03:54:01.215Z,1008.42
2018-11-26T03:55:01.233Z,1008.43
2018-11-26T03:56:01.263Z,1008.44
2018-11-26T03:57:01.291Z,1008.45
2018-11-26T03:58:01.314Z,1008.47
2018-11-26T03:59:01.341Z,1008.44
2018-11-26T04:00:01.367Z,1008.43
2018-11-26T04:01:01.398Z,1008.36
2018-11-26T04:02:01.424Z,1008.40
2018-11-26T04:03:01.449Z,1008.42
2018-11-26T04:04:01.480Z,1008.45
2018-11-26T04:05:01.506Z,1008.48
2018-11-26T04:06:01.530Z,1008.46
2018-11-26T04:07:01.556Z,1008.46
2018-11-26T04:08:01.585Z,1008.48
2018-11-26T04:09:01.611Z,1008.51
2018-11-26T04:10:01.640Z,1008.50
2018-11-26T04:11:01.663Z,1008.50
2018-11-26T04:12:01.691Z,1008.51
2018-11-26T04:13:01.720Z,1008.49
2018-11-26T04:14:01.745Z,1008.55
2018-11-26T04:15:01.772Z,1008.51
2018-11-26T04:16:01.797Z,1008.51
2018-11-26T04:17:01.826Z,1008.51
2018-11-26T04:18:01.853Z,1008.53
2018-11-26T04:19:01.880Z,1008.52
2018-11-26T04:20:01.913Z,1008.53
2018-11-26T04:21:01.932Z,1008.55
2018-11-26T04:22:01.968Z,1008.56
2018-11-26T04:23:01.987Z,1008.58
2018-11-26T04:24:02.013Z,1008.61
2018-11-26T04:25:02.049Z,1008.60
2018-11-26T04:26:02.074Z,1008.60
2018-11-26T04:27:02.095Z,1008.67
2018-11-26T04:28:02.122Z,1008.68
2018-11-26T04:29:02.150Z,1008.75
2018-11-26T04:30:02.177Z,1008.70
2018-11-26T04:31:02.203Z,1008.71
2018-11-26T04:32:02.231Z,1008.69
2018-11-26T04:33:02.259Z,1008.71
2018-11-26T04:34:02.287Z,1008.70
2018-11-26T04:35:02.311Z,1008.71
2018-11-26T04:36:02.339Z,1008.73
2018-11-26T04:37:02.366Z,1008.73
2018-11-26T04:38:02.396Z,1008.73
2018-11-26T04:39:02.421Z,1008.72
2018-11-26T04:40:02.447Z,1008.72
2018-11-26T04:41:02.472Z,1008.74
2018-11-26T04:42:02.503Z,1008.68
2018-11-26T04:43:02.533Z,1008.71
2018-11-26T04:44:02.556Z,1008.63
2018-11-26T04:45:02.584Z,1008.62
2018-11-26T04:46:02.609Z,1008.65
2018-11-26T04:47:02.636Z,1008.66
2018-11-26T04:48:02.665Z,1008.63
2018-11-26T04:49:02.690Z,1008.62
2018-11-26T04:50:02.716Z,1008.57
2018-11-26T04:51:02.749Z,1008.58
2018-11-26T04:52:02.772Z,1008.57
2018-11-26T04:53:02.801Z,1008.58
2018-11-26T04:54:02.825Z,1008.59
2018-11-26T04:55:02.852Z,1008.53
2018-11-26T04:56:02.880Z,1008.54
2018-11-26T04:57:02.906Z,1008.53
2018-11-26T04:58:02.933Z,1008.57
2018-11-26T04:59:02.960Z,1008.54
2018-11-26T05:00:02.987Z,1008.51
2018-11-26T05:01:03.015Z,1008.49
2018-11-26T05:02:03.084Z,1008.51
2018-11-26T05:03:03.070Z,1008.50
2018-11-26T05:04:03.096Z,1008.50
2018-11-26T05:05:03.123Z,1008.47
2018-11-26T05:06:03.171Z,1008.49
2018-11-26T05:07:03.178Z,1008.53
2018-11-26T05:08:03.203Z,1008.55
2018-11-26T05:09:03.233Z,1008.59
2018-11-26T05:10:03.272Z,1008.58
2018-11-26T05:11:03.285Z,1008.62
2018-11-26T05:12:03.311Z,1008.66
2018-11-26T05:13:03.339Z,1008.64
2018-11-26T05:14:03.375Z,1008.61
2018-11-26T05:15:03.392Z,1008.62
2018-11-26T05:16:03.422Z,1008.64
2018-11-26T05:17:03.450Z,1008.67
2018-11-26T05:18:03.476Z,1008.65
2018-11-26T05:19:03.503Z,1008.63
2018-11-26T05:20:03.529Z,1008.63
2018-11-26T05:21:03.557Z,1008.64
2018-11-26T05:22:03.583Z,1008.67
2018-11-26T05:23:03.610Z,1008.64
2018-11-26T05:24:03.638Z,1008.62
2018-11-26T05:25:03.666Z,1008.65
2018-11-26T05:26:03.692Z,1008.64
2018-11-26T05:27:03.721Z,1008.62
2018-11-26T05:28:03.746Z,1008.68
2018-11-26T05:29:03.773Z,1008.66
2018-11-26T05:30:03.803Z,1008.68
2018-11-26T05:31:03.826Z,1008.62
2018-11-26T05:32:03.856Z,1008.61
2018-11-26T05:33:03.881Z,1008.63
2018-11-26T05:34:03.913Z,1008.66
2018-11-26T05:35:03.935Z,1008.65
2018-11-26T05:36:03.967Z,1008.62
2018-11-26T05:37:03.990Z,1008.60
2018-11-26T05:38:04.021Z,1008.64
2018-11-26T05:39:04.044Z,1008.58
2018-11-26T05:40:04.071Z,1008.55
2018-11-26T05:41:04.099Z,1008.59
2018-11-26T05:42:04.127Z,1008.58
2018-11-26T05:43:04.154Z,1008.53
2018-11-26T05:44:04.567Z,1008.56
2018-11-26T05:45:04.208Z,1008.56
2018-11-26T05:46:04.238Z,1008.59
2018-11-26T05:47:04.267Z,1008.57
2018-11-26T05:48:04.289Z,1008.60
2018-11-26T05:49:04.320Z,1008.55
2018-11-26T05:50:04.344Z,1008.54
2018-11-26T05:51:04.370Z,1008.54
2018-11-26T05:52:04.396Z,1008.55
2018-11-26T05:53:04.427Z,1008.55
2018-11-26T05:54:04.455Z,1008.57
2018-11-26T05:55:04.480Z,1008.53
2018-11-26T05:56:04.507Z,1008.52
2018-11-26T05:57:04.534Z,1008.51
2018-11-26T05:58:04.562Z,1008.52
2018-11-26T05:59:04.589Z,1008.54
2018-11-26T06:00:04.618Z,1008.53
2018-11-26T06:01:04.644Z,1008.48
2018-11-26T06:02:04.670Z,1008.52
2018-11-26T06:03:04.695Z,1008.49
2018-11-26T06:04:04.728Z,1008.47
2018-11-26T06:05:04.775Z,1008.49
2018-11-26T06:06:04.788Z,1008.50
2018-11-26T06:07:04.805Z,1008.49
2018-11-26T06:08:04.840Z,1008.54
2018-11-26T06:09:04.859Z,1008.54
2018-11-26T06:10:04.888Z,1008.56
2018-11-26T06:11:04.913Z,1008.59
2018-11-26T06:12:04.941Z,1008.58
2018-11-26T06:13:04.971Z,1008.57
2018-11-26T06:14:04.995Z,1008.59
2018-11-26T06:15:05.022Z,1008.61
2018-11-26T06:16:05.053Z,1008.59
2018-11-26T06:17:05.077Z,1008.56
2018-11-26T06:18:05.108Z,1008.52
2018-11-26T06:19:05.133Z,1008.57
2018-11-26T06:20:05.160Z,1008.56
2018-11-26T06:21:05.188Z,1008.49
2018-11-26T06:22:05.213Z,1008.55
2018-11-26T06:23:05.242Z,1008.59
2018-11-26T06:24:05.266Z,1008.57
2018-11-26T06:25:05.296Z,1008.52
2018-11-26T06:26:05.326Z,1008.56
2018-11-26T06:27:05.349Z,1008.57
2018-11-26T06:28:05.378Z,1008.58
2018-11-26T06:29:05.403Z,1008.61
2018-11-26T06:30:05.430Z,1008.62
2018-11-26T06:31:05.458Z,1008.66
2018-11-26T06:32:05.490Z,1008.66
2018-11-26T06:33:05.516Z,1008.71
2018-11-26T06:34:05.539Z,1008.69
2018-11-26T06:35:05.566Z,1008.71
2018-11-26T06:36:05.594Z,1008.71
2018-11-26T06:37:05.620Z,1008.73
2018-11-26T06:38:05.648Z,1008.71
2018-11-26T06:39:05.674Z,1008.73
2018-11-26T06:40:05.701Z,1008.69
2018-11-26T06:41:05.784Z,1008.69
2018-11-26T06:42:05.757Z,1008.71
2018-11-26T06:43:05.787Z,1008.72
2018-11-26T06:44:05.810Z,1008.72
2018-11-26T06:45:05.838Z,1008.69
2018-11-26T06:46:05.866Z,1008.80
2018-11-26T06:47:05.891Z,1008.75
2018-11-26T06:48:05.919Z,1008.77
2018-11-26T06:49:05.947Z,1008.79
2018-11-26T06:50:05.973Z,1008.82
2018-11-26T06:51:06.000Z,1008.81
2018-11-26T06:52:06.026Z,1008.81
2018-11-26T06:53:06.059Z,1008.85
2018-11-26T06:54:06.082Z,1008.85
2018-11-26T06:55:06.109Z,1008.84
2018-11-26T06:56:06.135Z,1008.84
2018-11-26T06:57:06.167Z,1008.90
2018-11-26T06:58:06.190Z,1008.87
2018-11-26T06:59:06.217Z,1008.86
2018-11-26T07:00:06.244Z,1008.88
2018-11-26T07:01:06.273Z,1008.83
2018-11-26T07:02:06.299Z,1008.85
2018-11-26T07:03:06.326Z,1008.90
2018-11-26T07:04:06.353Z,1008.89
2018-11-26T07:05:06.380Z,1008.87
2018-11-26T07:06:06.414Z,1008.87
2018-11-26T07:07:06.436Z,1008.90
2018-11-26T07:08:06.463Z,1008.92
2018-11-26T07:09:06.490Z,1008.95
2018-11-26T07:10:06.518Z,1008.96
2018-11-26T07:11:06.544Z,1008.99
2018-11-26T07:12:06.574Z,1008.95
2018-11-26T07:13:06.604Z,1008.95
2018-11-26T07:14:06.625Z,1008.98
2018-11-26T07:15:06.652Z,1008.99
2018-11-26T07:16:06.680Z,1009.00
2018-11-26T07:17:06.712Z,1008.97
2018-11-26T07:18:06.735Z,1009.02
2018-11-26T07:19:06.761Z,1008.96
2018-11-26T07:20:06.792Z,1009.01
2018-11-26T07:21:06.817Z,1009.01
2018-11-26T07:22:06.849Z,1009.02
2018-11-26T07:23:06.870Z,1009.05
2018-11-26T07:24:06.897Z,1009.03
2018-11-26T07:25:06.925Z,1009.04
2018-11-26T07:26:06.953Z,1009.01
2018-11-26T07:27:06.987Z,1009.04
2018-11-26T07:28:07.041Z,1009.06
2018-11-26T07:29:07.034Z,1009.04
2018-11-26T07:30:07.065Z,1009.03
2018-11-26T07:31:07.090Z,1008.99
2018-11-26T07:32:07.115Z,1009.11
2018-11-26T07:33:07.144Z,1009.05
2018-11-26T07:34:07.178Z,1009.04
2018-11-26T07:35:07.198Z,1009.05
2018-11-26T07:36:11.455Z,1009.07
2018-11-26T07:37:07.253Z,1009.10
2018-11-26T07:38:07.280Z,1009.07
2018-11-26T07:39:07.307Z,1009.08
2018-11-26T07:40:07.334Z,1009.04
2018-11-26T07:41:07.362Z,1009.14
2018-11-26T07:42:07.390Z,1009.12
2018-11-26T07:43:07.416Z,1009.17
2018-11-26T07:44:08.288Z,1009.17
2018-11-26T07:45:07.472Z,1009.20
2018-11-26T07:46:07.499Z,1009.19
2018-11-26T07:47:07.525Z,1009.19
2018-11-26T07:48:07.555Z,1009.18
2018-11-26T07:49:07.585Z,1009.23
2018-11-26T07:50:07.611Z,1009.21
2018-11-26T07:51:07.634Z,1009.20
2018-11-26T07:52:07.673Z,1009.20
2018-11-26T07:53:07.689Z,1009.23
2018-11-26T07:54:07.718Z,1009.24
2018-11-26T07:55:07.743Z,1009.24
2018-11-26T07:56:07.771Z,1009.21
2018-11-26T07:57:07.800Z,1009.23
2018-11-26T07:58:07.826Z,1009.22
2018-11-26T07:59:07.855Z,1009.22
2018-11-26T08:00:07.881Z,1009.26
2018-11-26T08:01:07.909Z,1009.20
2018-11-26T08:02:07.937Z,1009.27
2018-11-26T08:03:07.963Z,1009.22
2018-11-26T08:04:07.992Z,1009.25
2018-11-26T08:05:08.019Z,1009.24
2018-11-26T08:06:08.901Z,1009.24
2018-11-26T08:07:08.072Z,1009.28
2018-11-26T08:08:08.103Z,1009.28
2018-11-26T08:09:08.219Z,1009.26
2018-11-26T08:10:08.155Z,1009.28
2018-11-26T08:11:08.183Z,1009.29
2018-11-26T08:12:08.211Z,1009.31
2018-11-26T08:13:08.241Z,1009.31
2018-11-26T08:14:08.265Z,1009.27
2018-11-26T08:15:08.293Z,1009.26
2018-11-26T08:16:08.351Z,1009.33
2018-11-26T08:17:08.347Z,1009.31
2018-11-26T08:18:08.376Z,1009.31
2018-11-26T08:19:08.401Z,1009.32
2018-11-26T08:20:08.429Z,1009.27
2018-11-26T08:21:08.457Z,1009.33
2018-11-26T08:22:08.485Z,1009.32
2018-11-26T08:23:08.512Z,1009.32
2018-11-26T08:24:08.544Z,1009.34
2018-11-26T08:25:08.568Z,1009.30
2018-11-26T08:26:08.594Z,1009.36
2018-11-26T08:27:08.621Z,1009.38
2018-11-26T08:28:08.651Z,1009.36
2018-11-26T08:29:08.676Z,1009.39
2018-11-26T08:30:08.705Z,1009.34
2018-11-26T08:31:08.731Z,1009.42
2018-11-26T08:32:08.758Z,1009.43
2018-11-26T08:33:08.788Z,1009.42
2018-11-26T08:34:08.817Z,1009.41
2018-11-26T08:35:08.840Z,1009.45
2018-11-26T08:36:08.870Z,1009.47
2018-11-26T08:37:08.900Z,1009.47
2018-11-26T08:38:08.925Z,1009.41
2018-11-26T08:39:08.951Z,1009.41
2018-11-26T08:40:08.982Z,1009.41
2018-11-26T08:41:09.007Z,1009.38
2018-11-26T08:42:09.041Z,1009.37
2018-11-26T08:43:09.063Z,1009.39
2018-11-26T08:44:09.536Z,1009.38
2018-11-26T08:45:09.124Z,1009.37
2018-11-26T08:46:09.145Z,1009.39
2018-11-26T08:47:09.173Z,1009.44
2018-11-26T08:48:09.201Z,1009.42
2018-11-26T08:49:09.240Z,1009.43
2018-11-26T08:50:09.274Z,1009.46
2018-11-26T08:51:09.282Z,1009.43
2018-11-26T08:52:09.310Z,1009.41
2018-11-26T08:53:09.343Z,1009.42
2018-11-26T08:54:09.365Z,1009.42
2018-11-26T08:55:09.393Z,1009.42
2018-11-26T08:56:09.438Z,1009.41
2018-11-26T08:57:09.449Z,1009.41
2018-11-26T08:58:09.478Z,1009.42
2018-11-26T08:59:09.506Z,1009.43
2018-11-26T09:00:16.707Z,1009.44
2018-11-26T09:02:13.569Z,1009.45
2018-11-26T09:03:13.574Z,1009.48
2018-11-26T09:05:23.977Z,1009.49
2018-11-26T09:06:17.621Z,1009.50
2018-11-26T09:08:21.657Z,1009.46
2018-11-26T09:09:21.664Z,1009.52
2018-11-26T09:11:14.623Z,1009.46
2018-11-26T09:12:14.628Z,1009.47
2018-11-26T09:14:18.661Z,1009.45
2018-11-26T09:15:18.687Z,1009.42
2018-11-26T09:17:22.766Z,1009.43
2018-11-26T09:18:22.725Z,1009.44
2018-11-26T09:20:26.750Z,1009.42
2018-11-26T09:21:26.798Z,1009.40
2018-11-26T09:23:30.838Z,1009.40
2018-11-26T09:24:30.822Z,1009.37
2018-11-26T09:26:34.840Z,1009.39
2018-11-26T09:27:34.862Z,1009.35
2018-11-26T09:29:38.911Z,1009.40
2018-11-26T09:30:38.918Z,1009.36
2018-11-26T09:32:42.942Z,1009.33
2018-11-26T09:33:42.962Z,1009.32
2018-11-26T09:35:47.236Z,1009.33
2018-11-26T09:36:47.009Z,1009.29
2018-11-26T09:38:51.029Z,1009.31
2018-11-26T09:39:51.053Z,1009.29
2018-11-26T09:41:55.091Z,1009.33
2018-11-26T09:42:55.096Z,1009.33
2018-11-26T09:44:59.119Z,1009.34
2018-11-26T09:45:59.143Z,1009.30
2018-11-26T09:48:03.202Z,1009.29
2018-11-26T09:49:03.188Z,1009.28
2018-11-26T09:50:56.129Z,1009.28
2018-11-26T09:51:56.151Z,1009.28
2018-11-26T09:54:00.191Z,1009.21
2018-11-26T09:55:00.195Z,1009.23
2018-11-26T09:57:04.218Z,1009.19
2018-11-26T09:58:04.243Z,1009.22
2018-11-26T10:00:08.373Z,1009.18
2018-11-26T10:01:08.285Z,1009.20
2018-11-26T10:03:12.308Z,1009.22
2018-11-26T10:04:12.330Z,1009.21
2018-11-26T10:06:16.369Z,1009.13
2018-11-26T10:07:16.375Z,1009.15
2018-11-26T10:09:20.402Z,1009.13
2018-11-26T10:10:20.423Z,1009.14
2018-11-26T10:12:24.555Z,1009.09
2018-11-26T10:13:24.466Z,1009.12
2018-11-26T10:15:28.485Z,1009.16
2018-11-26T10:16:28.509Z,1009.19
2018-11-26T10:18:32.546Z,1009.19
2018-11-26T10:19:32.552Z,1009.19
2018-11-26T10:21:36.572Z,1009.22
2018-11-26T10:22:36.594Z,1009.21
2018-11-26T10:24:40.745Z,1009.21
2018-11-26T10:25:40.639Z,1009.17
2018-11-26T10:27:44.661Z,1009.20
2018-11-26T10:28:44.687Z,1009.23
2018-11-26T10:30:37.663Z,1009.21
2018-11-26T10:31:37.652Z,1009.20
2018-11-26T10:33:41.673Z,1009.25
2018-11-26T10:34:41.697Z,1009.24
2018-11-26T10:36:45.735Z,1009.23
2018-11-26T10:37:45.741Z,1009.23
2018-11-26T10:39:49.767Z,1009.25
2018-11-26T10:40:49.789Z,1009.20
2018-11-26T10:42:53.934Z,1009.19
2018-11-26T10:43:53.831Z,1009.23
2018-11-26T10:45:57.856Z,1009.23
2018-11-26T10:46:57.880Z,1009.19
2018-11-26T10:49:01.917Z,1009.21
2018-11-26T10:50:01.925Z,1009.18
2018-11-26T10:52:05.951Z,1009.16
2018-11-26T10:53:05.973Z,1009.16
2018-11-26T10:55:10.035Z,1009.18
2018-11-26T10:56:10.026Z,1009.17
2018-11-26T10:58:14.046Z,1009.17
2018-11-26T10:59:14.067Z,1009.17
2018-11-26T11:01:07.052Z,1009.19
2018-11-26T11:02:07.035Z,1009.16
2018-11-26T11:04:11.058Z,1009.08
2018-11-26T11:05:11.079Z,1009.10
2018-11-26T11:07:15.136Z,1009.17
2018-11-26T11:08:15.129Z,1009.17
2018-11-26T11:10:19.154Z,1009.23
2018-11-26T11:11:23.469Z,1009.19
2018-11-26T11:13:23.402Z,1009.18
2018-11-26T11:14:23.223Z,1009.21
2018-11-26T11:16:27.250Z,1009.20
2018-11-26T11:17:27.269Z,1009.25
2018-11-26T11:19:31.327Z,1009.18
2018-11-26T11:20:31.323Z,1009.20
2018-11-26T11:22:35.342Z,1009.21
2018-11-26T11:23:35.368Z,1009.22
2018-11-26T11:25:39.418Z,1009.19
2018-11-26T11:26:39.411Z,1009.22
2018-11-26T11:28:43.446Z,1009.20
2018-11-26T11:29:43.459Z,1009.21
2018-11-26T11:31:47.535Z,1009.20
2018-11-26T11:32:47.504Z,1009.22
2018-11-26T11:34:51.529Z,1009.22
2018-11-26T11:35:51.551Z,1009.22
2018-11-26T11:37:55.610Z,1009.21
2018-11-26T11:38:55.602Z,1009.20
2018-11-26T11:40:48.546Z,1009.16
2018-11-26T11:41:48.566Z,1009.18
2018-11-26T11:43:52.622Z,1009.19
2018-11-26T11:44:52.611Z,1009.17
2018-11-26T11:46:56.648Z,1009.17
2018-11-26T11:47:56.666Z,1009.16
2018-11-26T11:50:00.805Z,1009.21
2018-11-26T11:51:00.712Z,1009.17
2018-11-26T11:53:04.737Z,1009.18
2018-11-26T11:54:04.769Z,1009.17
2018-11-26T11:56:08.815Z,1009.14
2018-11-26T11:57:08.807Z,1009.15
2018-11-26T11:59:12.831Z,1009.16
2018-11-26T12:00:12.854Z,1009.16
2018-11-26T12:02:16.907Z,1009.16
2018-11-26T12:03:16.899Z,1009.22
2018-11-26T12:05:20.922Z,1009.19
2018-11-26T12:06:20.946Z,1009.15
2018-11-26T12:08:25.002Z,1009.21
2018-11-26T12:09:24.998Z,1009.22
2018-11-26T12:11:17.932Z,1009.19
2018-11-26T12:12:17.958Z,1009.21
2018-11-26T12:14:22.012Z,1009.22
2018-11-26T12:15:22.003Z,1009.21
2018-11-26T12:17:26.028Z,1009.23
2018-11-26T12:18:26.048Z,1009.24
2018-11-26T12:20:30.108Z,1009.24
2018-11-26T12:21:30.094Z,1009.22
2018-11-26T12:23:34.116Z,1009.23
2018-11-26T12:24:34.140Z,1009.21
2018-11-26T12:26:38.196Z,1009.23
2018-11-26T12:27:38.189Z,1009.23
2018-11-26T12:29:42.211Z,1009.25
2018-11-26T12:30:42.236Z,1009.22
2018-11-26T12:32:46.290Z,1009.23
2018-11-26T12:33:46.282Z,1009.23
2018-11-26T12:35:50.311Z,1009.25
2018-11-26T12:36:50.328Z,1009.24
2018-11-26T12:38:54.390Z,1009.27
2018-11-26T12:39:54.388Z,1009.29
2018-11-26T12:41:58.407Z,1009.24
2018-11-26T12:42:58.430Z,1009.28
2018-11-26T12:45:02.488Z,1009.23
2018-11-26T12:46:02.485Z,1009.26
2018-11-26T12:48:06.504Z,1009.19
2018-11-26T12:49:06.525Z,1009.20
2018-11-26T12:50:59.507Z,1009.24
2018-11-26T12:51:59.490Z,1009.19
2018-11-26T12:54:03.514Z,1009.19
2018-11-26T12:55:03.544Z,1009.24
2018-11-26T12:57:07.675Z,1009.21
2018-11-26T12:58:07.594Z,1009.25
2018-11-26T13:00:11.609Z,1009.26
2018-11-26T13:01:11.635Z,1009.28
2018-11-26T13:03:15.690Z,1009.23
2018-11-26T13:04:15.681Z,1009.29
2018-11-26T13:06:19.704Z,1009.28
2018-11-26T13:07:19.735Z,1009.31
2018-11-26T13:09:23.780Z,1009.33
2018-11-26T13:10:23.776Z,1009.30
2018-11-26T13:12:27.795Z,1009.28
2018-11-26T13:13:27.819Z,1009.28
2018-11-26T13:15:31.885Z,1009.29
2018-11-26T13:16:31.868Z,1009.29
2018-11-26T13:18:35.889Z,1009.28
2018-11-26T13:19:35.914Z,1009.30
2018-11-26T13:21:39.969Z,1009.31
2018-11-26T13:22:39.962Z,1009.28
2018-11-26T13:24:43.981Z,1009.30
2018-11-26T13:25:44.004Z,1009.30
2018-11-26T13:27:48.060Z,1009.34
2018-11-26T13:28:48.052Z,1009.30
2018-11-26T13:30:40.994Z,1009.33
2018-11-26T13:31:41.015Z,1009.30
2018-11-26T13:33:45.313Z,1009.29
2018-11-26T13:34:45.093Z,1009.30
2018-11-26T13:36:49.559Z,1009.33
2018-11-26T13:37:49.114Z,1009.32
2018-11-26T13:39:53.166Z,1009.31
2018-11-26T13:40:53.157Z,1009.33
2018-11-26T13:42:57.184Z,1009.38
2018-11-26T13:43:57.208Z,1009.38
2018-11-26T13:46:01.851Z,1009.38
2018-11-26T13:47:01.450Z,1009.35
2018-11-26T13:49:05.470Z,1009.37
2018-11-26T13:50:05.493Z,1009.35
2018-11-26T13:52:09.545Z,1009.35
2018-11-26T13:53:09.538Z,1009.35
2018-11-26T13:55:13.575Z,1009.39
2018-11-26T13:56:13.594Z,1009.39
2018-11-26T13:58:17.659Z,1009.40
2018-11-26T13:59:17.643Z,1009.41
2018-11-26T14:01:10.589Z,1009.35
2018-11-26T14:02:10.609Z,1009.31